Time;durP1;ratioP1;P1;durP2;ratioP2;P2;SDS_P1;SDS_P2;PMS_P1;PMS_P2;Temp;Humidity;BMP_temperature;BMP_pressure;BME280_temperature;BME280_humidity;BME280_pressure;Samples;Min_cycle;Max_cycle;Signal;HPM_P1;HPM_P2
2022/09/05 00:00:19;;;;;;;3.83;3.53;;;16.90;99.90;;;;;;5010544;28;20436;-78
2022/09/05 00:03:13;;;;;;;3.67;3.37;;;16.90;99.90;;;;;;5015610;28;20562;-78
2022/09/05 00:06:00;;;;;;;3.90;3.50;;;16.80;99.90;;;;;;5023689;28;20474;-77
2022/09/05 00:08:33;;;;;;;6.47;3.63;;;16.80;99.90;;;;;;5031848;28;20508;-78
2022/09/05 00:11:09;;;;;;;4.73;3.83;;;16.80;99.90;;;;;;5013307;28;20567;-76
2022/09/05 00:13:41;;;;;;;4.43;3.73;;;16.70;99.90;;;;;;5030208;28;21001;-78
2022/09/05 00:16:28;;;;;;;4.33;3.57;;;16.70;99.90;;;;;;5017152;28;20457;-77
2022/09/05 00:19:09;;;;;;;6.87;3.97;;;16.70;99.90;;;;;;5017274;28;20428;-78
2022/09/05 00:21:57;;;;;;;5.03;4.53;;;16.60;99.90;;;;;;5034585;28;20848;-77
2022/09/05 00:24:40;;;;;;;6.33;4.43;;;16.60;99.90;;;;;;5034556;28;20478;-77
2022/09/05 00:27:16;;;;;;;4.97;4.40;;;16.60;99.90;;;;;;5019481;28;20478;-77
2022/09/05 00:29:59;;;;;;;5.10;4.00;;;16.50;99.90;;;;;;5020936;28;20548;-76
2022/09/05 00:32:54;;;;;;;8.23;4.37;;;16.50;99.90;;;;;;5014278;28;20512;-77
2022/09/05 00:35:35;;;;;;;4.30;3.90;;;16.50;99.90;;;;;;4996772;28;20790;-77
2022/09/05 00:38:13;;;;;;;5.77;3.80;;;16.40;99.90;;;;;;5022251;28;20445;-77
2022/09/05 00:40:44;;;;;;;4.20;3.40;;;16.40;99.90;;;;;;5028384;28;20424;-77
2022/09/05 00:43:17;;;;;;;3.43;3.03;;;16.40;99.90;;;;;;5025588;28;20449;-77
2022/09/05 00:45:50;;;;;;;3.77;3.40;;;16.40;99.90;;;;;;5022509;28;20425;-77
2022/09/05 00:48:28;;;;;;;3.80;3.50;;;16.40;99.90;;;;;;5022151;28;20829;-77
2022/09/05 00:51:02;;;;;;;4.13;3.50;;;16.40;99.90;;;;;;5022185;28;20433;-77
2022/09/05 00:53:38;;;;;;;3.63;3.33;;;16.40;99.90;;;;;;5017783;28;20491;-77
2022/09/05 00:56:15;;;;;;;3.30;3.10;;;16.40;99.90;;;;;;5024894;28;20468;-77
2022/09/05 00:58:59;;;;;;;3.60;3.30;;;16.30;99.90;;;;;;5032026;28;20839;-77
2022/09/05 01:01:30;;;;;;;6.80;3.53;;;16.30;99.90;;;;;;5015917;28;20417;-77
2022/09/05 01:04:08;;;;;;;3.03;2.83;;;16.20;99.90;;;;;;5026819;28;20450;-77
2022/09/05 01:06:47;;;;;;;4.50;3.30;;;16.20;99.90;;;;;;5021588;28;20424;-77
2022/09/05 01:09:24;;;;;;;5.43;3.60;;;16.20;99.90;;;;;;5017058;28;20460;-77
2022/09/05 01:12:01;;;;;;;3.80;3.50;;;16.10;99.90;;;;;;5012091;28;20458;-77
2022/09/05 01:14:38;;;;;;;3.30;3.10;;;16.10;99.90;;;;;;5032912;28;20453;-77
2022/09/05 01:17:18;;;;;;;4.17;3.40;;;16.10;99.90;;;;;;5026137;28;20482;-77
2022/09/05 01:19:58;;;;;;;5.20;3.53;;;16.10;99.90;;;;;;5025511;28;20483;-77
2022/09/05 01:22:48;;;;;;;3.97;3.67;;;16.00;99.90;;;;;;5033107;28;20481;-77
2022/09/05 01:25:28;;;;;;;3.37;3.17;;;16.00;99.90;;;;;;5008653;28;20451;-77
2022/09/05 01:28:01;;;;;;;6.50;4.00;;;15.90;99.90;;;;;;5031132;28;20487;-77
2022/09/05 01:30:33;;;;;;;3.93;3.57;;;15.80;99.90;;;;;;5016708;28;21155;-77
2022/09/05 01:33:09;;;;;;;11.00;4.07;;;15.80;99.90;;;;;;5009640;28;20479;-77
2022/09/05 01:35:54;;;;;;;4.97;3.67;;;15.70;99.90;;;;;;5032038;28;20885;-77
2022/09/05 01:38:27;;;;;;;3.97;3.67;;;15.70;99.90;;;;;;5023315;28;20447;-77
2022/09/05 01:41:06;;;;;;;4.27;3.87;;;15.60;99.90;;;;;;5025721;28;20549;-77
2022/09/05 01:43:50;;;;;;;5.40;4.23;;;15.60;99.90;;;;;;5025453;28;20861;-77
2022/09/05 01:46:28;;;;;;;4.73;4.27;;;15.50;99.90;;;;;;5032737;28;20454;-77
2022/09/05 01:49:01;;;;;;;4.70;4.00;;;15.50;99.90;;;;;;5031081;28;20505;-77
2022/09/05 01:51:36;;;;;;;14.50;4.50;;;15.40;99.90;;;;;;5026565;28;20519;-77
2022/09/05 01:54:19;;;;;;;6.73;3.80;;;15.40;99.90;;;;;;5007584;28;20475;-77
2022/09/05 01:56:54;;;;;;;4.20;3.80;;;15.40;99.90;;;;;;5013069;28;20512;-77
2022/09/05 01:59:37;;;;;;;4.37;4.00;;;15.40;99.90;;;;;;5013593;28;20529;-77
2022/09/05 02:02:19;;;;;;;4.23;3.83;;;15.30;99.90;;;;;;5013094;28;20863;-77
2022/09/05 02:05:10;;;;;;;6.80;3.70;;;15.30;99.90;;;;;;5022982;28;20432;-77
2022/09/05 02:07:52;;;;;;;4.53;4.03;;;15.30;99.90;;;;;;5013115;28;20478;-77
2022/09/05 02:10:39;;;;;;;4.53;4.13;;;15.30;99.90;;;;;;5007444;28;20491;-77
2022/09/05 02:13:17;;;;;;;4.47;4.07;;;15.30;99.90;;;;;;5027685;28;21001;-77
2022/09/05 02:15:49;;;;;;;4.20;3.90;;;15.30;99.90;;;;;;5030186;28;20978;-77
2022/09/05 02:18:21;;;;;;;4.60;4.20;;;15.30;99.90;;;;;;5023388;28;20497;-77
2022/09/05 02:20:56;;;;;;;5.07;4.57;;;15.30;99.90;;;;;;5022679;28;20453;-77
2022/09/05 02:23:33;;;;;;;5.10;4.50;;;15.40;99.90;;;;;;5013272;28;20453;-77
2022/09/05 02:26:05;;;;;;;8.00;4.23;;;15.40;99.90;;;;;;5014759;28;20429;-77
2022/09/05 02:28:40;;;;;;;5.30;4.30;;;15.40;99.90;;;;;;5012898;28;20426;-77
2022/09/05 02:31:16;;;;;;;4.50;4.10;;;15.40;99.90;;;;;;5004591;28;20959;-77
2022/09/05 02:33:49;;;;;;;4.87;4.43;;;15.40;99.90;;;;;;5012249;28;20557;-77
2022/09/05 02:36:33;;;;;;;14.30;4.30;;;15.40;99.90;;;;;;5012223;28;20508;-77
2022/09/05 02:39:06;;;;;;;4.67;4.27;;;15.40;99.90;;;;;;5023281;28;20463;-77
2022/09/05 02:41:38;;;;;;;7.20;4.30;;;15.30;99.90;;;;;;5020204;28;20456;-77
2022/09/05 02:44:10;;;;;;;10.90;4.90;;;15.30;99.90;;;;;;5019196;28;20452;-77
2022/09/05 02:46:45;;;;;;;5.40;4.47;;;15.30;99.90;;;;;;5024598;28;20421;-77
2022/09/05 02:49:18;;;;;;;5.47;4.30;;;15.30;99.90;;;;;;5030435;28;20428;-77
2022/09/05 02:51:51;;;;;;;7.83;6.10;;;15.30;99.90;;;;;;5023821;28;20455;-77
2022/09/05 02:54:23;;;;;;;6.50;4.40;;;15.30;99.90;;;;;;5021246;28;20527;-77
2022/09/05 02:57:04;;;;;;;5.50;4.50;;;15.30;99.90;;;;;;5029482;28;20482;-77
2022/09/05 02:59:44;;;;;;;4.30;3.90;;;15.30;99.90;;;;;;5029330;28;20433;-77
2022/09/05 03:02:21;;;;;;;4.97;4.20;;;15.30;99.90;;;;;;5020017;28;20426;-77
2022/09/05 03:04:51;;;;;;;10.00;4.20;;;15.30;99.90;;;;;;5019461;28;20445;-76
2022/09/05 03:07:45;;;;;;;8.37;5.00;;;15.20;99.90;;;;;;5016722;28;20476;-77
2022/09/05 03:10:39;;;;;;;5.57;4.80;;;15.20;99.90;;;;;;5031296;28;20450;-77
2022/09/05 03:13:50;;;;;;;5.20;4.80;;;15.10;99.90;;;;;;5013357;28;20561;-77
2022/09/05 03:16:35;;;;;;;11.50;5.17;;;15.10;99.90;;;;;;5020989;28;20536;-77
2022/09/05 03:19:42;;;;;;;4.80;4.40;;;15.10;99.90;;;;;;5028521;28;20458;-77
2022/09/05 03:23:04;;;;;;;5.50;5.00;;;15.00;99.90;;;;;;5015229;28;20458;-77
2022/09/05 03:26:01;;;;;;;5.17;4.67;;;15.00;99.90;;;;;;5020745;28;20504;-77
2022/09/05 03:29:00;;;;;;;6.80;4.60;;;15.00;99.90;;;;;;5005391;28;20458;-77
2022/09/05 03:31:43;;;;;;;8.23;5.00;;;15.00;99.90;;;;;;5005330;28;21027;-77
2022/09/05 03:34:41;;;;;;;5.93;5.00;;;15.00;99.90;;;;;;5021501;28;20473;-77
2022/09/05 03:37:39;;;;;;;6.30;4.93;;;15.00;99.90;;;;;;5018834;28;20491;-77
2022/09/05 03:40:42;;;;;;;6.80;4.80;;;15.00;99.90;;;;;;5019960;28;20422;-77
2022/09/05 03:43:44;;;;;;;6.90;4.83;;;15.00;99.90;;;;;;5018864;28;20473;-77
2022/09/05 03:46:22;;;;;;;5.83;5.23;;;15.00;99.90;;;;;;5025601;28;20437;-77
2022/09/05 03:49:00;;;;;;;6.30;5.40;;;15.00;99.90;;;;;;5029600;28;20925;-77
2022/09/05 03:51:40;;;;;;;7.13;5.50;;;15.00;99.90;;;;;;5018625;28;20541;-77
2022/09/05 03:54:33;;;;;;;7.03;4.80;;;15.00;99.90;;;;;;5011827;28;20487;-77
2022/09/05 03:57:32;;;;;;;11.03;5.40;;;14.90;99.90;;;;;;5020014;28;20517;-77
2022/09/05 04:00:07;;;;;;;10.80;4.20;;;14.90;99.90;;;;;;5019107;28;20426;-77
2022/09/05 04:02:38;;;;;;;7.87;4.50;;;14.80;99.90;;;;;;5011843;28;20528;-76
2022/09/05 04:05:09;;;;;;;7.63;5.00;;;14.70;99.90;;;;;;5011677;28;20451;-77
2022/09/05 04:07:42;;;;;;;6.03;4.40;;;14.70;99.90;;;;;;5025230;28;20462;-77
2022/09/05 04:10:21;;;;;;;7.47;5.00;;;14.70;99.90;;;;;;5015974;28;20457;-77
2022/09/05 04:12:52;;;;;;;5.40;4.90;;;14.60;99.90;;;;;;5007071;28;20470;-77
2022/09/05 04:15:30;;;;;;;10.93;5.83;;;14.50;99.90;;;;;;5012294;28;20526;-77
2022/09/05 04:18:00;;;;;;;6.80;4.60;;;14.40;99.90;;;;;;5012531;28;20490;-77
2022/09/05 04:20:36;;;;;;;9.13;5.30;;;14.40;99.90;;;;;;5018872;28;20451;-77
2022/09/05 04:23:15;;;;;;;6.03;5.43;;;14.40;99.90;;;;;;5014649;28;20482;-77
2022/09/05 04:25:54;;;;;;;5.70;5.20;;;14.40;99.90;;;;;;5010127;28;20454;-77
2022/09/05 04:28:41;;;;;;;7.17;5.50;;;14.50;99.90;;;;;;5030378;28;20450;-77
2022/09/05 04:31:16;;;;;;;11.57;5.93;;;14.50;99.90;;;;;;5025169;28;20510;-77
2022/09/05 04:33:55;;;;;;;8.10;5.53;;;14.60;99.90;;;;;;5013724;28;20466;-77
2022/09/05 04:36:26;;;;;;;8.70;5.37;;;14.60;99.90;;;;;;5013097;28;20459;-77
2022/09/05 04:39:22;;;;;;;9.93;5.30;;;14.60;99.90;;;;;;5010871;28;20821;-77
2022/09/05 04:41:52;;;;;;;12.80;6.33;;;14.70;99.90;;;;;;5008564;28;20474;-77
2022/09/05 04:44:25;;;;;;;6.50;5.90;;;14.70;99.90;;;;;;5014780;28;20472;-77
2022/09/05 04:46:55;;;;;;;8.13;6.00;;;14.70;99.90;;;;;;5026161;28;20449;-77
2022/09/05 04:49:24;;;;;;;8.40;6.20;;;14.80;99.90;;;;;;5008939;28;20459;-77
2022/09/05 04:52:18;;;;;;;8.63;5.60;;;14.80;99.90;;;;;;5015343;28;20459;-76
2022/09/05 04:54:49;;;;;;;9.70;5.97;;;14.80;99.90;;;;;;5018712;28;20480;-77
2022/09/05 04:57:23;;;;;;;6.53;5.67;;;14.80;99.90;;;;;;5014351;28;20457;-77
2022/09/05 04:59:57;;;;;;;5.10;4.70;;;14.80;99.90;;;;;;5014679;28;20490;-77
2022/09/05 05:02:31;;;;;;;6.13;5.20;;;14.90;99.90;;;;;;5029684;28;20947;-77
2022/09/05 05:05:01;;;;;;;5.70;5.10;;;15.20;99.90;;;;;;5026572;28;21140;-77
2022/09/05 05:07:39;;;;;;;16.83;5.43;;;15.40;99.90;;;;;;5023446;28;20429;-76
2022/09/05 05:10:11;;;;;;;12.43;4.60;;;15.60;99.90;;;;;;5033451;28;20612;-76
2022/09/05 05:13:03;;;;;;;6.60;5.27;;;15.90;99.90;;;;;;5030906;28;20478;-75
2022/09/05 05:15:31;;;;;;;5.73;5.17;;;16.10;99.90;;;;;;5016540;28;20455;-75
2022/09/05 05:18:06;;;;;;;8.60;5.30;;;16.20;99.90;;;;;;5025727;28;20539;-76
2022/09/05 05:20:36;;;;;;;9.63;5.90;;;16.20;99.90;;;;;;5018584;28;20482;-76
2022/09/05 05:23:05;;;;;;;5.70;4.70;;;16.30;99.90;;;;;;5033234;28;20470;-77
2022/09/05 05:25:43;;;;;;;8.20;5.10;;;16.40;99.90;;;;;;5031280;28;21017;-77
2022/09/05 05:28:12;;;;;;;6.07;5.47;;;16.50;99.90;;;;;;5019166;28;20424;-76
2022/09/05 05:30:40;;;;;;;6.97;5.40;;;16.60;99.90;;;;;;5014095;28;20511;-76
2022/09/05 05:33:18;;;;;;;9.97;4.90;;;16.60;99.90;;;;;;5030530;28;20470;-76
2022/09/05 05:35:48;;;;;;;7.60;5.17;;;16.70;99.90;;;;;;5029263;28;20478;-77
2022/09/05 05:38:27;;;;;;;10.80;4.57;;;16.70;99.90;;;;;;5017064;28;20469;-76
2022/09/05 05:41:04;;;;;;;10.50;5.30;;;17.00;99.90;;;;;;5011045;28;21209;-76
2022/09/05 05:43:36;;;;;;;6.17;4.70;;;17.40;99.90;;;;;;5023346;28;20541;-76
2022/09/05 05:46:03;;;;;;;7.00;4.57;;;17.50;99.90;;;;;;5029209;28;20491;-76
2022/09/05 05:48:35;;;;;;;8.20;5.27;;;17.50;99.90;;;;;;5014306;28;20430;-76
2022/09/05 05:51:20;;;;;;;11.00;5.60;;;17.70;99.90;;;;;;5010178;28;20491;-76
2022/09/05 05:53:54;;;;;;;9.97;4.97;;;18.00;99.90;;;;;;5015893;28;20521;-76
2022/09/05 05:56:38;;;;;;;5.80;4.90;;;18.20;99.90;;;;;;5016681;28;20877;-76
2022/09/05 05:59:25;;;;;;;5.77;4.80;;;18.40;99.90;;;;;;5007539;28;20493;-76
2022/09/05 06:02:24;;;;;;;5.40;4.80;;;18.50;99.90;;;;;;5014647;28;20429;-76
2022/09/05 06:05:16;;;;;;;7.67;5.40;;;18.60;99.90;;;;;;5005245;28;20429;-76
2022/09/05 06:07:56;;;;;;;8.77;5.07;;;18.80;99.90;;;;;;5013270;28;20506;-76
2022/09/05 06:10:53;;;;;;;14.13;6.33;;;18.90;99.90;;;;;;5013171;28;20491;-77
2022/09/05 06:13:51;;;;;;;10.50;5.20;;;19.20;99.90;;;;;;5009213;28;20978;-76
2022/09/05 06:16:45;;;;;;;5.30;4.80;;;19.40;99.90;;;;;;5025335;28;20459;-76
2022/09/05 06:19:41;;;;;;;7.37;5.20;;;19.10;99.90;;;;;;5007589;28;20541;-77
2022/09/05 06:22:35;;;;;;;12.03;5.40;;;18.80;99.90;;;;;;5025971;28;20829;-76
2022/09/05 06:25:35;;;;;;;9.40;5.73;;;18.50;99.90;;;;;;5005485;28;20425;-77
2022/09/05 06:28:15;;;;;;;7.43;5.77;;;18.50;99.90;;;;;;5006213;28;20425;-76
2022/09/05 06:30:49;;;;;;;6.80;5.03;;;18.50;99.90;;;;;;5012736;28;20500;-76
2022/09/05 06:33:31;;;;;;;6.30;5.40;;;18.20;99.90;;;;;;5012707;28;20976;-76
2022/09/05 06:36:14;;;;;;;10.20;6.33;;;18.00;99.90;;;;;;5012254;28;20451;-76
2022/09/05 06:39:01;;;;;;;7.63;6.30;;;17.90;99.90;;;;;;5018469;28;20540;-76
2022/09/05 06:41:41;;;;;;;8.30;5.47;;;17.90;99.90;;;;;;5026534;28;20837;-77
2022/09/05 06:44:30;;;;;;;10.73;6.07;;;17.90;99.90;;;;;;5029412;28;20490;-78
2022/09/05 06:47:05;;;;;;;6.20;5.10;;;18.20;99.90;;;;;;5013767;28;20846;-78
2022/09/05 06:49:57;;;;;;;7.07;5.57;;;19.00;99.90;;;;;;5021204;28;20454;-78
2022/09/05 06:53:05;;;;;;;7.90;6.07;;;19.90;99.90;;;;;;5026496;28;20532;-78
2022/09/05 06:55:49;;;;;;;8.00;5.07;;;20.60;99.90;;;;;;5013366;28;20544;-78
2022/09/05 06:58:54;;;;;;;9.40;5.40;;;21.00;99.90;;;;;;5023623;28;20523;-76
2022/09/05 07:01:26;;;;;;;11.90;6.23;;;21.50;99.90;;;;;;5009148;28;20525;-76
2022/09/05 07:04:12;;;;;;;7.50;5.63;;;21.90;99.90;;;;;;5014141;28;20467;-76
2022/09/05 07:06:51;;;;;;;9.13;5.10;;;22.10;99.90;;;;;;5024754;28;20458;-77
2022/09/05 07:09:24;;;;;;;6.70;4.90;;;22.40;99.90;;;;;;5031525;28;20480;-76
2022/09/05 07:12:00;;;;;;;5.70;5.10;;;22.60;99.90;;;;;;5015702;28;20466;-76
2022/09/05 07:14:32;;;;;;;4.77;3.93;;;22.80;99.90;;;;;;5030459;28;20454;-76
2022/09/05 07:17:08;;;;;;;5.10;4.50;;;23.00;99.90;;;;;;5022634;28;20871;-76
2022/09/05 07:19:44;;;;;;;4.70;4.30;;;23.20;99.90;;;;;;5030038;28;20482;-76
2022/09/05 07:22:31;;;;;;;6.60;4.43;;;23.30;99.90;;;;;;5012467;28;20451;-77
2022/09/05 07:25:01;;;;;;;6.83;4.13;;;23.50;99.90;;;;;;5018174;28;20462;-76
2022/09/05 07:27:34;;;;;;;7.77;4.57;;;23.70;99.90;;;;;;5030964;28;20509;-76
2022/09/05 07:30:02;;;;;;;6.30;4.23;;;24.00;99.90;;;;;;5031048;28;20453;-75
2022/09/05 07:32:31;;;;;;;4.83;4.40;;;24.00;99.90;;;;;;5030609;28;20481;-75
2022/09/05 07:35:03;;;;;;;5.63;4.20;;;24.00;99.90;;;;;;5030627;28;20454;-75
2022/09/05 07:37:37;;;;;;;9.60;4.00;;;23.80;99.90;;;;;;5026550;28;20548;-75
2022/09/05 07:40:09;;;;;;;5.27;4.23;;;24.00;99.90;;;;;;5026119;28;20504;-76
2022/09/05 07:42:41;;;;;;;5.50;3.87;;;24.00;99.90;;;;;;5012280;28;20477;-75
2022/09/05 07:45:12;;;;;;;3.43;3.23;;;24.20;99.90;;;;;;5011833;28;20455;-79
2022/09/05 07:47:42;;;;;;;3.43;3.13;;;24.50;99.90;;;;;;5011797;28;20451;-75
2022/09/05 07:50:12;;;;;;;6.23;4.23;;;24.80;99.90;;;;;;5016333;28;20455;-76
2022/09/05 07:52:43;;;;;;;5.83;3.20;;;25.10;99.90;;;;;;5011180;28;20478;-76
2022/09/05 07:55:24;;;;;;;4.80;3.60;;;25.30;99.90;;;;;;5011200;28;20554;-76
2022/09/05 07:57:54;;;;;;;5.30;3.70;;;25.40;99.90;;;;;;5019454;28;20485;-76
2022/09/05 08:00:23;;;;;;;4.60;3.13;;;25.40;99.90;;;;;;5028485;28;20533;-76
2022/09/05 08:02:50;;;;;;;5.30;3.10;;;25.50;99.90;;;;;;5022535;28;20976;-76
2022/09/05 08:05:21;;;;;;;5.47;3.00;;;25.70;99.90;;;;;;5011146;28;20509;-73
2022/09/05 08:07:51;;;;;;;3.33;2.83;;;26.00;99.90;;;;;;5017356;28;20848;-74
2022/09/05 08:10:22;;;;;;;5.13;2.73;;;26.10;99.90;;;;;;5030434;28;20830;-73
2022/09/05 08:12:54;;;;;;;3.43;2.70;;;26.40;99.90;;;;;;5017181;28;20471;-74
2022/09/05 08:15:24;;;;;;;3.83;2.70;;;26.60;99.90;;;;;;5017738;28;20459;-73
2022/09/05 08:18:05;;;;;;;4.83;3.00;;;26.70;99.90;;;;;;5021253;28;20521;-74
2022/09/05 08:20:41;;;;;;;5.67;3.03;;;26.50;99.90;;;;;;5019964;28;20875;-74
2022/09/05 08:23:18;;;;;;;4.00;2.83;;;26.70;99.90;;;;;;5014633;28;20478;-74
2022/09/05 08:25:56;;;;;;;2.40;2.30;;;26.70;99.90;;;;;;5013443;28;20877;-73
2022/09/05 08:28:31;;;;;;;6.47;2.53;;;27.00;99.90;;;;;;5013864;28;20458;-73
2022/09/05 08:31:05;;;;;;;4.20;2.33;;;27.10;99.90;;;;;;5014384;28;20556;-74
2022/09/05 08:33:35;;;;;;;4.80;2.83;;;27.30;99.90;;;;;;5013799;28;20482;-74
2022/09/05 08:36:09;;;;;;;3.73;2.97;;;27.40;99.90;;;;;;5013492;28;20521;-74
2022/09/05 08:38:39;;;;;;;2.60;2.40;;;27.40;99.90;;;;;;5014261;28;20486;-74
2022/09/05 08:41:13;;;;;;;7.80;2.73;;;27.50;99.90;;;;;;5014780;28;20455;-73
2022/09/05 08:43:50;;;;;;;2.67;2.33;;;27.60;99.90;;;;;;5014850;28;21021;-74
2022/09/05 08:46:27;;;;;;;2.27;2.07;;;27.50;99.90;;;;;;5014808;28;20450;-73
2022/09/05 08:49:29;;;;;;;4.10;2.70;;;27.50;99.90;;;;;;5014794;28;20503;-73
2022/09/05 08:52:06;;;;;;;2.70;2.50;;;27.20;99.90;;;;;;5014983;28;20446;-73
2022/09/05 08:54:37;;;;;;;7.90;2.63;;;27.00;99.90;;;;;;5015542;28;20509;-73
2022/09/05 08:57:16;;;;;;;2.57;2.37;;;26.80;99.90;;;;;;5015112;28;20855;-73
2022/09/05 08:59:49;;;;;;;5.93;2.70;;;26.70;99.90;;;;;;5021581;28;20483;-73
2022/09/05 09:02:52;;;;;;;3.30;2.70;;;26.50;99.90;;;;;;5020435;28;20525;-77
2022/09/05 09:05:30;;;;;;;3.37;2.70;;;26.50;99.90;;;;;;5020856;28;20453;-77
2022/09/05 09:08:11;;;;;;;9.17;3.07;;;26.40;99.90;;;;;;5014236;28;20459;-77
2022/09/05 09:10:53;;;;;;;7.97;3.00;;;26.70;99.90;;;;;;5018832;28;20970;-77
2022/09/05 09:13:38;;;;;;;5.67;2.80;;;27.00;99.90;;;;;;5022861;28;20475;-76
2022/09/05 09:16:09;;;;;;;4.47;2.60;;;27.10;99.90;;;;;;5009205;28;20478;-76
2022/09/05 09:18:59;;;;;;;7.00;2.90;;;26.90;99.90;;;;;;5010656;28;20479;-77
2022/09/05 09:21:33;;;;;;;5.03;2.23;;;26.70;99.90;;;;;;5014082;28;20459;-77
2022/09/05 09:24:11;;;;;;;4.43;2.40;;;26.80;99.90;;;;;;5026090;28;20473;-76
2022/09/05 09:26:42;;;;;;;5.07;2.37;;;27.00;99.90;;;;;;5019551;28;20524;-76
2022/09/05 09:29:12;;;;;;;2.70;2.43;;;27.10;99.90;;;;;;5023136;28;20528;-76
2022/09/05 09:31:58;;;;;;;6.03;2.70;;;27.30;99.90;;;;;;5031372;28;20478;-78
2022/09/05 09:34:43;;;;;;;6.53;2.23;;;27.50;99.90;;;;;;5028997;28;20524;-77
2022/09/05 09:37:42;;;;;;;4.27;2.77;;;27.70;99.90;;;;;;5017736;28;20468;-77
2022/09/05 09:40:34;;;;;;;6.60;2.47;;;28.00;99.90;;;;;;5009916;28;21033;-76
2022/09/05 09:43:05;;;;;;;4.97;2.90;;;28.10;99.90;;;;;;5016667;28;20479;-75
2022/09/05 09:45:52;;;;;;;3.27;2.33;;;28.20;99.90;;;;;;5028819;28;20510;-75
2022/09/05 09:48:41;;;;;;;2.33;2.13;;;27.90;99.90;;;;;;5012154;28;21013;-75
2022/09/05 09:51:36;;;;;;;2.27;2.17;;;28.00;99.90;;;;;;5020184;28;20453;-76
2022/09/05 09:54:20;;;;;;;3.40;2.50;;;27.90;99.90;;;;;;5008767;28;20502;-75
2022/09/05 09:57:21;;;;;;;3.87;2.27;;;28.10;99.90;;;;;;5012280;28;20447;-75
2022/09/05 10:00:03;;;;;;;3.60;2.37;;;28.20;99.90;;;;;;5013866;28;20532;-77
2022/09/05 10:03:05;;;;;;;6.60;2.43;;;28.10;99.90;;;;;;5025214;28;20474;-76
2022/09/05 10:05:41;;;;;;;2.70;2.50;;;27.80;99.90;;;;;;5004810;28;20461;-76
2022/09/05 10:08:35;;;;;;;5.37;2.63;;;27.50;99.90;;;;;;5017122;28;20457;-76
2022/09/05 10:11:11;;;;;;;9.60;2.07;;;27.20;99.90;;;;;;5024811;28;20449;-77
2022/09/05 10:14:07;;;;;;;3.87;2.30;;;27.50;99.90;;;;;;5022407;28;20608;-76
2022/09/05 10:16:52;;;;;;;11.17;2.27;;;27.50;99.90;;;;;;5018087;28;20450;-76
2022/09/05 10:19:40;;;;;;;8.53;2.50;;;27.60;99.90;;;;;;5022225;28;20497;-76
2022/09/05 10:22:22;;;;;;;6.13;2.17;;;27.50;99.90;;;;;;5030382;28;20505;-76
2022/09/05 10:25:08;;;;;;;2.10;1.90;;;27.20;99.90;;;;;;5011983;28;20459;-76
2022/09/05 10:27:45;;;;;;;2.00;1.83;;;27.20;99.90;;;;;;5016879;28;20447;-76
2022/09/05 10:30:20;;;;;;;4.77;3.93;;;27.40;99.90;;;;;;5010953;28;20451;-76
2022/09/05 10:33:15;;;;;;;5.87;2.40;;;27.50;99.90;;;;;;5013523;28;21060;-77
2022/09/05 10:35:44;;;;;;;7.37;2.53;;;27.60;99.90;;;;;;5011984;28;20960;-76
2022/09/05 10:38:18;;;;;;;2.87;2.20;;;27.90;99.90;;;;;;5019915;28;20453;-76
2022/09/05 10:40:50;;;;;;;2.53;1.90;;;28.10;99.90;;;;;;5010396;28;20447;-77
2022/09/05 10:43:24;;;;;;;4.50;2.00;;;28.20;99.90;;;;;;5018415;28;21013;-76
2022/09/05 10:46:03;;;;;;;5.60;1.97;;;28.30;99.90;;;;;;5017929;28;20558;-77
2022/09/05 10:48:40;;;;;;;11.73;2.10;;;28.40;99.90;;;;;;5013239;28;20450;-76
2022/09/05 10:51:17;;;;;;;3.37;2.30;;;28.40;99.90;;;;;;5013910;28;20500;-76
2022/09/05 10:53:53;;;;;;;2.60;2.13;;;28.50;99.90;;;;;;5012302;28;21025;-76
2022/09/05 10:56:24;;;;;;;3.90;2.33;;;28.70;99.90;;;;;;5019685;28;20799;-78
2022/09/05 10:59:00;;;;;;;2.50;1.90;;;28.80;99.90;;;;;;5025739;28;20497;-76
2022/09/05 11:01:33;;;;;;;2.23;2.03;;;28.80;99.90;;;;;;5020719;28;20461;-78
2022/09/05 11:04:12;;;;;;;2.33;2.23;;;28.60;99.90;;;;;;5021968;28;20472;-77
2022/09/05 11:07:07;;;;;;;4.70;2.60;;;28.40;99.90;;;;;;5011862;28;20856;-77
2022/09/05 11:09:51;;;;;;;3.93;2.30;;;28.50;99.90;;;;;;5001058;28;20455;-77
2022/09/05 11:12:31;;;;;;;2.63;1.87;;;28.70;99.90;;;;;;5010453;28;21005;-76
2022/09/05 11:15:01;;;;;;;2.70;2.10;;;28.80;99.90;;;;;;5012124;28;20442;-76
2022/09/05 11:17:37;;;;;;;7.40;2.10;;;28.80;99.90;;;;;;5020816;28;20473;-77
2022/09/05 11:20:40;;;;;;;8.00;2.40;;;28.70;99.90;;;;;;5018652;28;20483;-78
2022/09/05 11:23:12;;;;;;;8.60;2.00;;;28.80;99.90;;;;;;5011377;28;20986;-77
2022/09/05 11:25:39;;;;;;;3.93;2.03;;;28.90;99.90;;;;;;5010626;28;20455;-76
2022/09/05 11:28:13;;;;;;;4.13;1.92;;;28.80;99.90;;;;;;5011749;28;20458;-77
2022/09/05 11:30:48;;;;;;;2.17;1.97;;;28.80;99.90;;;;;;5011877;28;20251;-77
2022/09/05 11:33:40;;;;;;;2.23;2.03;;;28.90;99.90;;;;;;5022797;28;20470;-76
2022/09/05 11:36:14;;;;;;;2.77;2.10;;;29.00;99.90;;;;;;5029013;28;20456;-76
2022/09/05 11:39:10;;;;;;;2.13;2.00;;;29.20;99.90;;;;;;5028389;28;20868;-77
2022/09/05 11:42:05;;;;;;;1.77;1.67;;;29.20;99.90;;;;;;5026639;28;20823;-77
2022/09/05 11:44:45;;;;;;;1.80;1.70;;;29.40;99.90;;;;;;4997578;28;21367;-76
2022/09/05 11:47:47;;;;;;;3.80;2.30;;;29.50;99.90;;;;;;5028267;28;20478;-77
2022/09/05 11:50:44;;;;;;;2.30;2.10;;;29.70;99.90;;;;;;5022413;28;20449;-76
2022/09/05 11:53:43;;;;;;;2.13;2.03;;;29.80;99.90;;;;;;5023380;28;20473;-77
2022/09/05 11:56:38;;;;;;;2.73;2.00;;;30.10;99.30;;;;;;5017762;28;20445;-77
2022/09/05 11:59:33;;;;;;;7.00;1.90;;;30.50;98.80;;;;;;5014906;28;20552;-76
2022/09/05 12:02:22;;;;;;;4.03;2.23;;;30.50;97.70;;;;;;5023757;28;20455;-76
2022/09/05 12:04:54;;;;;;;2.30;2.03;;;30.20;98.20;;;;;;5013988;28;20451;-75
2022/09/05 12:07:47;;;;;;;2.23;2.03;;;30.30;98.00;;;;;;5015812;28;20454;-76
2022/09/05 12:10:29;;;;;;;3.10;2.37;;;30.30;97.90;;;;;;5015890;28;20451;-76
2022/09/05 12:13:18;;;;;;;6.40;2.50;;;30.20;98.10;;;;;;5030785;28;20865;-76
2022/09/05 12:15:46;;;;;;;3.77;2.10;;;30.10;98.20;;;;;;5026596;28;20457;-76
2022/09/05 12:18:21;;;;;;;2.60;2.40;;;30.20;97.10;;;;;;5024832;28;20446;-76
2022/09/05 12:20:55;;;;;;;2.97;2.30;;;30.20;96.90;;;;;;5017215;28;20539;-77
2022/09/05 12:23:33;;;;;;;3.00;2.27;;;30.40;96.60;;;;;;5032959;28;20476;-75
2022/09/05 12:26:04;;;;;;;7.87;2.10;;;30.50;96.10;;;;;;5029121;28;21011;-75
2022/09/05 12:28:39;;;;;;;3.10;2.07;;;30.50;96.00;;;;;;5028718;28;20454;-75
2022/09/05 12:31:17;;;;;;;6.93;2.43;;;30.20;96.40;;;;;;5033120;28;20479;-76
2022/09/05 12:33:47;;;;;;;2.33;1.90;;;29.70;96.30;;;;;;5018131;28;20469;-76
2022/09/05 12:36:17;;;;;;;2.60;1.93;;;29.40;97.00;;;;;;5032842;28;20451;-75
2022/09/05 12:38:50;;;;;;;7.37;2.60;;;29.50;96.40;;;;;;5024836;28;20512;-75
2022/09/05 12:41:20;;;;;;;2.53;2.20;;;29.40;96.50;;;;;;5011843;28;20494;-75
2022/09/05 12:44:12;;;;;;;3.67;2.00;;;29.10;96.30;;;;;;5027488;28;20548;-75
2022/09/05 12:46:52;;;;;;;2.83;2.30;;;29.30;96.30;;;;;;5031286;28;20477;-74
2022/09/05 12:49:30;;;;;;;4.23;2.30;;;29.60;95.70;;;;;;5029300;28;20455;-74
2022/09/05 12:52:03;;;;;;;2.40;2.07;;;30.00;95.80;;;;;;5018748;28;20471;-73
2022/09/05 12:54:40;;;;;;;4.17;2.10;;;30.50;95.10;;;;;;5031952;28;20531;-73
2022/09/05 12:57:15;;;;;;;2.47;2.20;;;31.00;93.40;;;;;;5015443;28;20516;-73
2022/09/05 12:59:46;;;;;;;2.00;1.90;;;31.30;93.30;;;;;;5018425;28;20482;-73
2022/09/05 13:02:18;;;;;;;3.03;2.10;;;31.50;93.40;;;;;;5014345;28;20934;-74
2022/09/05 13:04:54;;;;;;;3.70;2.00;;;31.20;93.50;;;;;;5029759;28;20478;-75
2022/09/05 13:07:26;;;;;;;2.00;1.80;;;31.10;93.90;;;;;;5027877;28;20490;-74
2022/09/05 13:09:58;;;;;;;3.07;1.97;;;31.40;92.90;;;;;;5019737;28;20529;-74
2022/09/05 13:12:29;;;;;;;3.07;2.50;;;31.70;91.50;;;;;;5014769;28;20481;-75
2022/09/05 13:15:01;;;;;;;1.90;1.80;;;32.10;91.50;;;;;;5013441;28;20542;-74
2022/09/05 13:17:37;;;;;;;1.90;1.80;;;32.20;90.30;;;;;;5019337;28;20462;-74
2022/09/05 13:20:14;;;;;;;2.27;2.00;;;32.30;89.60;;;;;;5012821;28;20958;-75
2022/09/05 13:22:42;;;;;;;2.13;1.70;;;32.30;88.70;;;;;;5018551;28;20980;-76
2022/09/05 13:25:15;;;;;;;2.07;1.97;;;32.30;88.60;;;;;;5012916;28;20470;-75
2022/09/05 13:27:55;;;;;;;2.13;1.73;;;32.30;88.00;;;;;;5013021;28;20947;-73
2022/09/05 13:30:23;;;;;;;8.30;2.10;;;32.20;88.40;;;;;;5012813;28;20522;-74
2022/09/05 13:32:52;;;;;;;2.33;1.70;;;32.10;88.80;;;;;;5012872;28;20553;-75
2022/09/05 13:35:23;;;;;;;2.40;2.20;;;31.90;89.50;;;;;;5011522;28;20448;-75
2022/09/05 13:37:59;;;;;;;3.70;2.20;;;31.80;89.30;;;;;;5016729;28;20467;-75
2022/09/05 13:40:32;;;;;;;3.80;2.33;;;31.80;89.50;;;;;;5012645;28;21183;-75
2022/09/05 13:43:08;;;;;;;2.10;2.00;;;31.80;88.30;;;;;;5012738;28;20529;-75
2022/09/05 13:45:50;;;;;;;3.83;2.10;;;31.70;88.00;;;;;;5012745;28;20451;-72
2022/09/05 13:48:36;;;;;;;1.90;1.70;;;32.00;86.30;;;;;;5012899;28;20461;-75